Aviation Digital Data Service (ADDS)

Output produced by METARs form (0558 UTC 18 January 2018)
found at http://www.aviationweather.gov/adds/metars/
 
METAR text: KTAZ 180535Z AUTO 22010KT 10SM CLR M09/M13 A3041 RMK AO2 T10871135
Conditions at: KTAZ (TAYLORVILLE , IL, US) observed 0535 UTC 18 January 2018
Temperature: -8.7°C (16°F)
Dewpoint: -13.5°C (8°F) [RH = 68%]
Pressure (altimeter): 30.41 inches Hg (1029.9 mb)
Winds: from the SW (220 degrees) at 12 MPH (10 knots; 5.2 m/s)
Visibility: 10 or more miles (16+ km)
Ceiling: at least 12,000 feet AGL
Clouds: sky clear below 12,000 feet AGL
Weather: automated observation with no human augmentation;
there may or may not be significant weather present at this time